createdAt,value
2022-12-06T00:01:03.887Z,4.93
2022-12-06T00:03:30.260Z,5.15
2022-12-06T00:06:00.497Z,5.10
2022-12-06T00:08:26.746Z,6.40
2022-12-06T00:10:53.017Z,5.82
2022-12-06T00:13:19.270Z,5.07
2022-12-06T00:15:45.537Z,3.78
2022-12-06T00:18:11.806Z,4.13
2022-12-06T00:20:38.688Z,5.32
2022-12-06T00:25:31.282Z,5.90
2022-12-06T00:27:57.544Z,5.57
2022-12-06T00:30:23.800Z,5.53
2022-12-06T00:32:50.251Z,5.10
2022-12-06T00:35:16.509Z,4.68
2022-12-06T00:37:42.850Z,5.97
2022-12-06T00:40:09.334Z,6.20
2022-12-06T00:42:35.673Z,5.57
2022-12-06T00:45:01.943Z,5.55
2022-12-06T00:47:28.207Z,5.05
2022-12-06T00:49:54.483Z,6.25
2022-12-06T00:52:20.737Z,4.82
2022-12-06T00:54:46.987Z,6.70
2022-12-06T00:57:13.243Z,7.47
2022-12-06T00:59:39.496Z,7.57
2022-12-06T01:02:07.234Z,9.40
2022-12-06T01:04:33.808Z,11.07
2022-12-06T01:07:00.124Z,9.63
2022-12-06T01:09:28.955Z,8.80
2022-12-06T01:11:55.571Z,8.85
2022-12-06T01:14:21.814Z,9.10
2022-12-06T01:16:48.117Z,8.85
2022-12-06T01:19:14.492Z,9.82
2022-12-06T01:21:40.745Z,8.73
2022-12-06T01:24:07.196Z,7.35
2022-12-06T01:26:34.247Z,6.85
2022-12-06T01:29:00.868Z,5.18
2022-12-06T01:31:32.098Z,4.93
2022-12-06T01:34:02.020Z,4.43
2022-12-06T01:36:28.266Z,4.72
2022-12-06T01:38:55.864Z,3.30
2022-12-06T01:41:22.983Z,4.60
2022-12-06T01:43:49.657Z,4.10
2022-12-06T01:46:26.109Z,3.83
2022-12-06T01:48:59.068Z,4.47
2022-12-06T01:51:25.401Z,5.20
2022-12-06T01:53:52.771Z,5.05
2022-12-06T01:56:19.662Z,4.20
2022-12-06T02:01:12.293Z,4.20
2022-12-06T02:03:38.743Z,4.95
2022-12-06T02:06:06.105Z,4.25
2022-12-06T02:08:33.059Z,4.15
2022-12-06T02:13:25.879Z,4.10
2022-12-06T02:16:15.168Z,4.10
2022-12-06T02:18:45.681Z,4.03
2022-12-06T02:21:17.930Z,4.03
2022-12-06T02:23:52.869Z,4.18
2022-12-06T02:26:37.772Z,4.10
2022-12-06T02:29:22.795Z,4.40
2022-12-06T02:31:56.755Z,4.20
2022-12-06T02:34:28.432Z,4.78
2022-12-06T02:37:00.931Z,5.05
2022-12-06T02:39:34.573Z,4.93
2022-12-06T02:42:00.777Z,5.47
2022-12-06T02:44:35.656Z,3.83
2022-12-06T02:47:03.697Z,4.18
2022-12-06T02:49:32.060Z,4.57
2022-12-06T02:51:58.490Z,4.03
2022-12-06T02:54:25.668Z,4.75
2022-12-06T02:56:51.946Z,4.20
2022-12-06T02:59:18.384Z,3.95
2022-12-06T03:01:46.792Z,3.95
2022-12-06T03:04:34.905Z,3.70
2022-12-06T03:09:52.502Z,3.88
2022-12-06T03:12:30.857Z,3.35
2022-12-06T03:15:15.491Z,3.75
2022-12-06T03:17:45.935Z,3.60
2022-12-06T03:20:21.465Z,3.80
2022-12-06T03:22:50.933Z,3.83
2022-12-06T03:25:17.840Z,4.07
2022-12-06T03:30:13.036Z,3.67
2022-12-06T03:32:41.365Z,4.05
2022-12-06T03:35:09.601Z,3.85
2022-12-06T03:37:37.792Z,3.28
2022-12-06T03:40:07.361Z,3.70
2022-12-06T03:42:33.721Z,4.22
2022-12-06T03:45:00.118Z,3.80
2022-12-06T03:47:26.424Z,5.72
2022-12-06T03:49:55.044Z,4.68
2022-12-06T03:52:22.785Z,4.43
2022-12-06T03:54:49.017Z,3.33
2022-12-06T03:57:15.394Z,3.65
2022-12-06T03:59:41.676Z,4.72
2022-12-06T04:02:08.093Z,3.45
2022-12-06T04:04:34.448Z,3.67
2022-12-06T04:07:00.683Z,3.45
2022-12-06T04:09:45.476Z,3.58
2022-12-06T04:12:30.261Z,4.00
2022-12-06T04:14:56.488Z,3.53
2022-12-06T04:17:41.121Z,3.40
2022-12-06T04:20:07.661Z,4.05
2022-12-06T04:22:52.667Z,4.30
2022-12-06T04:25:18.903Z,5.47
2022-12-06T04:28:03.660Z,4.30
2022-12-06T04:30:48.440Z,3.97
2022-12-06T04:33:33.016Z,3.83
2022-12-06T04:36:17.900Z,3.95
2022-12-06T04:38:44.694Z,3.83
2022-12-06T04:41:11.606Z,4.18
2022-12-06T04:46:10.993Z,4.57
2022-12-06T04:48:37.326Z,3.95
2022-12-06T04:51:03.677Z,4.35
2022-12-06T04:53:29.913Z,4.40
2022-12-06T04:55:56.287Z,3.65
2022-12-06T04:58:23.211Z,3.70
2022-12-06T05:03:16.324Z,3.80
2022-12-06T05:08:09.130Z,4.65
2022-12-06T05:10:35.790Z,4.45
2022-12-06T05:13:02.120Z,4.13
2022-12-06T05:15:29.477Z,4.13
2022-12-06T05:17:55.836Z,5.90
2022-12-06T05:20:22.185Z,5.88
2022-12-06T05:22:48.439Z,4.07
2022-12-06T05:25:14.966Z,3.90
2022-12-06T05:27:41.209Z,3.70
2022-12-06T05:30:07.865Z,4.43
2022-12-06T05:32:34.211Z,4.15
2022-12-06T05:35:00.646Z,6.97
2022-12-06T05:37:26.877Z,4.93
2022-12-06T05:39:53.109Z,3.67
2022-12-06T05:42:22.469Z,3.92
2022-12-06T05:44:49.022Z,4.80
2022-12-06T05:47:15.236Z,4.10
2022-12-06T05:49:41.525Z,3.88
2022-12-06T05:52:09.741Z,4.05
2022-12-06T05:54:36.003Z,4.10
2022-12-06T05:57:02.255Z,3.67
2022-12-06T05:59:28.628Z,4.47
2022-12-06T06:01:55.007Z,4.85
2022-12-06T06:04:21.406Z,7.03
2022-12-06T06:06:47.630Z,4.95
2022-12-06T06:09:13.864Z,5.40
2022-12-06T06:11:40.084Z,4.68
2022-12-06T06:14:06.320Z,5.05
2022-12-06T06:16:33.804Z,43.97
2022-12-06T06:19:01.652Z,73.28
2022-12-06T06:21:27.974Z,30.02
2022-12-06T06:23:56.183Z,26.60
2022-12-06T06:26:22.547Z,6.80
2022-12-06T06:28:48.781Z,4.68
2022-12-06T06:31:15.920Z,9.00
2022-12-06T06:33:42.177Z,10.35
2022-12-06T06:36:08.585Z,9.15
2022-12-06T06:38:34.890Z,5.13
2022-12-06T06:41:02.064Z,8.35
2022-12-06T06:43:30.208Z,9.13
2022-12-06T06:45:57.898Z,6.05
2022-12-06T06:48:24.814Z,6.50
2022-12-06T06:53:24.861Z,7.30
2022-12-06T06:55:51.096Z,27.00
2022-12-06T06:58:17.331Z,5.53
2022-12-06T07:00:43.616Z,17.83
2022-12-06T07:03:14.054Z,13.60
2022-12-06T07:05:40.285Z,8.77
2022-12-06T07:08:06.515Z,14.40
2022-12-06T07:10:32.764Z,12.80
2022-12-06T07:12:58.979Z,17.88
2022-12-06T07:15:25.215Z,13.35
2022-12-06T07:17:51.549Z,16.83
2022-12-06T07:20:18.376Z,15.55
2022-12-06T07:22:44.777Z,11.52
2022-12-06T07:25:11.048Z,5.57
2022-12-06T07:27:37.271Z,7.22
2022-12-06T07:30:04.680Z,4.70
2022-12-06T07:32:34.845Z,4.53
2022-12-06T07:35:01.088Z,4.13
2022-12-06T07:37:27.319Z,3.97
2022-12-06T07:39:53.566Z,4.03
2022-12-06T07:42:38.172Z,3.25
2022-12-06T07:45:07.178Z,4.03
2022-12-06T07:47:34.296Z,4.20
2022-12-06T07:50:00.717Z,39.08
2022-12-06T07:52:30.321Z,15.20
2022-12-06T07:54:56.559Z,28.50
2022-12-06T07:57:22.775Z,36.40
2022-12-06T07:59:49.048Z,29.25
2022-12-06T08:02:17.448Z,18.52
2022-12-06T08:04:43.826Z,14.45
2022-12-06T08:07:10.326Z,14.82
2022-12-06T08:09:36.576Z,38.45
2022-12-06T08:12:03.024Z,22.13
2022-12-06T08:14:29.303Z,21.00
2022-12-06T08:16:55.545Z,10.02
2022-12-06T08:19:21.821Z,10.52
2022-12-06T08:21:48.600Z,8.75
2022-12-06T08:24:14.995Z,9.52
2022-12-06T08:26:41.303Z,9.50
2022-12-06T08:29:07.593Z,7.95
2022-12-06T08:31:36.730Z,8.10
2022-12-06T08:34:03.686Z,8.50
2022-12-06T08:36:30.027Z,7.10
2022-12-06T08:38:56.500Z,7.10
2022-12-06T08:41:48.954Z,5.32
2022-12-06T08:44:15.726Z,4.80
2022-12-06T08:46:42.116Z,5.20
2022-12-06T08:49:08.688Z,4.30
2022-12-06T08:51:35.487Z,6.57
2022-12-06T08:54:01.752Z,5.88
2022-12-06T08:56:28.474Z,6.60
2022-12-06T08:58:55.192Z,6.88
2022-12-06T09:01:23.524Z,5.80
2022-12-06T09:03:49.944Z,4.93
2022-12-06T09:06:17.034Z,5.82
2022-12-06T09:08:43.300Z,5.50
2022-12-06T09:11:09.560Z,4.90
2022-12-06T09:13:37.008Z,5.10
2022-12-06T09:16:10.720Z,4.90
2022-12-06T09:18:37.372Z,4.28
2022-12-06T09:21:07.652Z,4.80
2022-12-06T09:23:34.789Z,4.47
2022-12-06T09:26:01.256Z,4.70
2022-12-06T09:28:28.371Z,4.13
2022-12-06T09:30:54.680Z,4.35
2022-12-06T09:33:22.220Z,3.92
2022-12-06T09:35:50.206Z,5.28
2022-12-06T09:38:16.795Z,4.60
2022-12-06T09:40:56.769Z,4.22
2022-12-06T09:43:28.918Z,4.30
2022-12-06T09:46:00.694Z,3.60
2022-12-06T09:48:29.794Z,3.53
2022-12-06T09:51:14.760Z,4.40
2022-12-06T09:53:55.487Z,5.07
2022-12-06T09:56:24.808Z,4.68
2022-12-06T09:59:10.706Z,4.68
2022-12-06T10:01:45.752Z,3.75
2022-12-06T10:04:26.672Z,3.78
2022-12-06T10:07:01.109Z,4.20
2022-12-06T10:09:46.363Z,4.18
2022-12-06T10:12:20.440Z,4.00
2022-12-06T10:15:05.461Z,4.00
2022-12-06T10:17:34.756Z,4.50
2022-12-06T10:20:13.908Z,4.70
2022-12-06T10:22:49.175Z,4.35
2022-12-06T10:25:18.809Z,4.22
2022-12-06T10:27:49.566Z,4.40
2022-12-06T10:30:16.766Z,4.10
2022-12-06T10:32:52.258Z,4.10
2022-12-06T10:35:18.600Z,3.65
2022-12-06T10:37:50.932Z,3.55
2022-12-06T10:40:17.156Z,4.53
2022-12-06T10:42:47.828Z,4.40
2022-12-06T10:45:36.015Z,4.65
2022-12-06T10:48:05.075Z,3.97
2022-12-06T10:50:33.670Z,4.18
2022-12-06T10:53:02.391Z,3.60
2022-12-06T10:55:31.901Z,4.20
2022-12-06T10:58:06.473Z,4.28
2022-12-06T11:00:35.675Z,4.20
2022-12-06T11:03:21.194Z,4.18
2022-12-06T11:05:50.036Z,4.15
2022-12-06T11:08:36.891Z,3.67
2022-12-06T11:11:05.147Z,4.20
2022-12-06T11:13:34.410Z,4.07
2022-12-06T11:16:06.008Z,4.25
2022-12-06T11:18:33.104Z,3.85
2022-12-06T11:21:05.613Z,4.05
2022-12-06T11:23:50.496Z,3.67
2022-12-06T11:26:27.996Z,4.07
2022-12-06T11:31:25.685Z,3.60
2022-12-06T11:33:52.183Z,3.50
2022-12-06T11:36:19.887Z,3.97
2022-12-06T11:38:46.435Z,4.05
2022-12-06T11:41:17.463Z,3.50
2022-12-06T11:43:43.795Z,6.50
2022-12-06T11:46:12.122Z,3.75
2022-12-06T11:48:38.638Z,3.50
2022-12-06T11:51:05.447Z,3.35
2022-12-06T11:53:40.495Z,3.25
2022-12-06T11:56:15.317Z,3.28
2022-12-06T11:58:49.176Z,2.90
2022-12-06T12:01:15.449Z,3.20
2022-12-06T12:03:43.710Z,3.45
2022-12-06T12:06:19.174Z,3.70
2022-12-06T12:08:59.878Z,3.17
2022-12-06T12:11:30.416Z,3.80
2022-12-06T12:14:01.259Z,5.88
2022-12-06T12:16:35.808Z,8.02
2022-12-06T12:19:03.893Z,3.70
2022-12-06T12:21:37.597Z,5.60
2022-12-06T12:24:04.511Z,3.58
2022-12-06T12:29:05.158Z,5.40
2022-12-06T12:31:31.468Z,4.82
2022-12-06T12:34:16.484Z,6.68
2022-12-06T12:36:46.807Z,3.92
2022-12-06T12:39:21.945Z,4.00
2022-12-06T12:41:48.179Z,3.28
2022-12-06T12:49:33.219Z,32.55
2022-12-06T12:52:01.207Z,14.25
2022-12-06T12:54:27.764Z,7.18
2022-12-06T12:56:54.160Z,11.68
2022-12-06T12:59:21.774Z,11.48
2022-12-06T13:01:52.796Z,15.20
2022-12-06T13:04:33.656Z,29.63
2022-12-06T13:07:02.720Z,14.23
2022-12-06T13:09:31.846Z,7.38
2022-12-06T13:12:02.684Z,31.20
2022-12-06T13:14:29.617Z,12.13
2022-12-06T13:19:25.122Z,12.07
2022-12-06T13:21:52.160Z,8.38
2022-12-06T13:24:22.121Z,10.30
2022-12-06T13:26:57.562Z,8.88
2022-12-06T13:29:23.790Z,4.78
2022-12-06T13:31:51.861Z,6.40
2022-12-06T13:34:24.460Z,18.25
2022-12-06T13:36:53.713Z,13.23
2022-12-06T13:39:32.515Z,13.52
2022-12-06T13:42:18.403Z,9.07
2022-12-06T13:44:47.704Z,11.35
2022-12-06T13:47:26.419Z,10.85
2022-12-06T13:50:03.424Z,9.98
2022-12-06T13:52:42.065Z,13.95
2022-12-06T13:55:23.680Z,10.15
2022-12-06T13:57:56.086Z,5.22
2022-12-06T14:00:31.347Z,28.80
2022-12-06T14:03:03.945Z,13.50
2022-12-06T14:08:15.357Z,5.47
2022-12-06T14:10:41.619Z,8.65
2022-12-06T14:13:12.133Z,5.03
2022-12-06T14:15:40.080Z,3.78
2022-12-06T14:18:15.627Z,5.85
2022-12-06T14:20:41.970Z,5.00
2022-12-06T14:23:43.601Z,4.93
2022-12-06T14:26:14.455Z,5.45
2022-12-06T14:28:41.455Z,5.25
2022-12-06T14:31:16.403Z,4.40
2022-12-06T14:33:42.662Z,5.40
2022-12-06T14:36:17.325Z,8.32
2022-12-06T14:38:50.132Z,31.15
2022-12-06T14:41:38.409Z,13.27
2022-12-06T14:44:15.556Z,8.60
2022-12-06T14:46:43.032Z,18.98
2022-12-06T14:49:30.450Z,12.80
2022-12-06T14:51:56.663Z,7.25
2022-12-06T14:54:28.795Z,9.30
2022-12-06T14:56:55.050Z,8.80
2022-12-06T14:59:45.111Z,6.03
2022-12-06T15:02:23.554Z,5.30
2022-12-06T15:04:49.897Z,4.88
2022-12-06T15:07:35.094Z,5.65
2022-12-06T15:10:32.352Z,5.85
2022-12-06T15:13:18.631Z,5.35
2022-12-06T15:15:45.972Z,6.03
2022-12-06T15:18:15.139Z,5.07
2022-12-06T15:20:41.366Z,5.25
2022-12-06T15:25:36.808Z,4.60
2022-12-06T15:28:03.045Z,5.80
2022-12-06T15:30:29.308Z,6.57
2022-12-06T15:32:55.707Z,5.20
2022-12-06T15:35:22.031Z,5.32
2022-12-06T15:37:50.485Z,5.70
2022-12-06T15:40:17.008Z,4.93
2022-12-06T15:42:43.449Z,5.30
2022-12-06T15:45:14.872Z,8.32
2022-12-06T15:47:41.160Z,7.60
2022-12-06T15:50:07.978Z,7.72
2022-12-06T15:52:34.236Z,11.75
2022-12-06T15:55:00.902Z,26.67
2022-12-06T15:57:27.404Z,14.02
2022-12-06T15:59:53.663Z,10.98
2022-12-06T16:02:20.551Z,7.72
2022-12-06T16:04:50.350Z,5.97
2022-12-06T16:07:18.860Z,4.90
2022-12-06T16:09:45.493Z,5.28
2022-12-06T16:12:11.812Z,5.35
2022-12-06T16:14:38.226Z,6.28
2022-12-06T16:17:04.502Z,6.63
2022-12-06T16:19:50.740Z,6.30
2022-12-06T16:22:17.122Z,7.13
2022-12-06T16:24:43.455Z,7.13
2022-12-06T16:27:10.232Z,7.82
2022-12-06T16:29:36.489Z,8.48
2022-12-06T16:32:02.889Z,8.13
2022-12-06T16:34:30.106Z,6.85
2022-12-06T16:37:00.869Z,6.85
2022-12-06T16:39:27.696Z,8.30
2022-12-06T16:41:53.967Z,8.10
2022-12-06T16:44:20.310Z,8.55
2022-12-06T16:46:46.769Z,9.85
2022-12-06T16:49:44.678Z,9.98
2022-12-06T16:52:01.094Z,10.05
2022-12-06T16:54:27.347Z,10.70
2022-12-06T16:56:53.598Z,11.82
2022-12-06T16:59:19.840Z,10.45
2022-12-06T17:01:47.797Z,17.20
2022-12-06T17:04:14.178Z,11.68
2022-12-06T17:06:40.543Z,10.20
2022-12-06T17:09:06.792Z,10.27
2022-12-06T17:11:52.712Z,9.25
2022-12-06T17:14:19.968Z,8.13
2022-12-06T17:16:46.527Z,7.93
2022-12-06T17:19:14.511Z,8.68
2022-12-06T17:21:40.919Z,8.13
2022-12-06T17:24:07.291Z,8.60
2022-12-06T17:26:33.606Z,7.95
2022-12-06T17:29:00.395Z,8.20
2022-12-06T17:31:26.895Z,6.80
2022-12-06T17:33:53.354Z,8.93
2022-12-06T17:36:24.938Z,12.73
2022-12-06T17:38:51.834Z,14.57
2022-12-06T17:41:38.468Z,21.40
2022-12-06T17:44:04.941Z,14.65
2022-12-06T17:46:31.245Z,18.95
2022-12-06T17:48:57.938Z,12.77
2022-12-06T17:51:24.686Z,11.20
2022-12-06T17:53:51.164Z,11.85
2022-12-06T17:56:29.680Z,10.20
2022-12-06T17:58:56.720Z,11.13
2022-12-06T18:01:23.379Z,11.23
2022-12-06T18:03:50.428Z,9.25
2022-12-06T18:06:16.691Z,9.48
2022-12-06T18:08:42.969Z,8.48
2022-12-06T18:11:09.309Z,11.48
2022-12-06T18:13:35.581Z,14.35
2022-12-06T18:16:01.950Z,13.60
2022-12-06T18:18:28.317Z,12.90
2022-12-06T18:20:54.589Z,9.98
2022-12-06T18:23:20.867Z,8.35
2022-12-06T18:25:47.239Z,8.15
2022-12-06T18:28:13.524Z,6.90
2022-12-06T18:30:41.067Z,6.43
2022-12-06T18:33:07.322Z,6.32
2022-12-06T18:35:35.311Z,5.15
2022-12-06T18:38:01.575Z,4.80
2022-12-06T18:40:27.840Z,4.43
2022-12-06T18:42:54.132Z,4.65
2022-12-06T18:45:20.412Z,4.78
2022-12-06T18:47:47.596Z,5.20
2022-12-06T18:50:14.148Z,5.95
2022-12-06T18:52:40.379Z,5.97
2022-12-06T18:55:07.012Z,10.02
2022-12-06T18:57:37.268Z,10.52
2022-12-06T19:00:04.703Z,9.85
2022-12-06T19:02:31.283Z,9.20
2022-12-06T19:04:57.572Z,9.27
2022-12-06T19:07:25.191Z,9.85
2022-12-06T19:09:51.530Z,8.18
2022-12-06T19:12:17.751Z,8.57
2022-12-06T19:14:44.007Z,8.07
2022-12-06T19:17:13.299Z,10.68
2022-12-06T19:19:42.527Z,7.65
2022-12-06T19:22:08.953Z,9.10
2022-12-06T19:24:36.215Z,10.07
2022-12-06T19:27:02.512Z,12.25
2022-12-06T19:29:29.341Z,10.82
2022-12-06T19:31:55.633Z,16.23
2022-12-06T19:34:23.581Z,22.45
2022-12-06T19:36:50.510Z,12.68
2022-12-06T19:42:02.791Z,24.03
2022-12-06T19:44:29.476Z,9.15
2022-12-06T19:46:56.348Z,7.47
2022-12-06T19:51:49.781Z,6.90
2022-12-06T19:54:17.490Z,9.30
2022-12-06T19:56:43.756Z,8.05
2022-12-06T19:59:12.887Z,8.05
2022-12-06T20:01:40.954Z,8.32
2022-12-06T20:04:07.372Z,9.98
2022-12-06T20:06:34.954Z,12.10
2022-12-06T20:09:01.624Z,8.63
2022-12-06T20:11:46.836Z,8.25
2022-12-06T20:14:14.858Z,8.55
2022-12-06T20:16:42.400Z,9.63
2022-12-06T20:19:09.098Z,10.00
2022-12-06T20:21:35.688Z,11.45
2022-12-06T20:24:02.217Z,13.73
2022-12-06T20:26:29.327Z,10.50
2022-12-06T20:28:55.661Z,8.30
2022-12-06T20:31:23.354Z,12.25
2022-12-06T20:33:49.678Z,17.00
2022-12-06T20:36:17.559Z,22.88
2022-12-06T20:38:44.033Z,15.45
2022-12-06T20:41:11.274Z,11.90
2022-12-06T20:43:38.204Z,19.75
2022-12-06T20:48:35.516Z,23.40
2022-12-06T20:51:02.694Z,22.02
2022-12-06T20:53:29.083Z,15.85
2022-12-06T20:55:55.343Z,13.18
2022-12-06T20:58:21.617Z,13.80
2022-12-06T21:00:48.685Z,15.43
2022-12-06T21:03:15.020Z,12.95
2022-12-06T21:05:45.107Z,13.60
2022-12-06T21:08:11.852Z,15.27
2022-12-06T21:10:53.789Z,18.88
2022-12-06T21:13:24.924Z,16.90
2022-12-06T21:16:00.928Z,17.02
2022-12-06T21:18:30.079Z,11.68
2022-12-06T21:20:56.488Z,8.00
2022-12-06T21:23:22.887Z,8.27
2022-12-06T21:25:49.159Z,7.30
2022-12-06T21:28:15.520Z,6.97
2022-12-06T21:30:41.844Z,7.75
2022-12-06T21:33:09.401Z,9.45
2022-12-06T21:35:36.509Z,10.88
2022-12-06T21:38:03.575Z,14.95
2022-12-06T21:40:29.890Z,17.88
2022-12-06T21:42:56.132Z,10.63
2022-12-06T21:45:22.380Z,11.68
2022-12-06T21:47:48.638Z,12.65
2022-12-06T21:50:14.897Z,10.55
2022-12-06T21:52:41.168Z,14.30
2022-12-06T21:55:07.588Z,11.02
2022-12-06T21:57:34.631Z,12.05
2022-12-06T22:00:01.349Z,9.45
2022-12-06T22:04:54.209Z,7.78
2022-12-06T22:07:20.520Z,16.40
2022-12-06T22:09:46.793Z,15.48
2022-12-06T22:12:13.258Z,15.15
2022-12-06T22:14:39.491Z,10.00
2022-12-06T22:17:05.785Z,10.95
2022-12-06T22:19:32.066Z,13.45
2022-12-06T22:21:58.604Z,14.43
2022-12-06T22:24:24.836Z,19.92
2022-12-06T22:26:51.075Z,19.05
2022-12-06T22:29:17.309Z,18.63
2022-12-06T22:31:43.686Z,13.70
2022-12-06T22:34:09.970Z,11.52
2022-12-06T22:36:36.325Z,10.00
2022-12-06T22:39:03.247Z,8.40
2022-12-06T22:43:56.790Z,9.77
2022-12-06T22:46:23.965Z,9.02
2022-12-06T22:48:50.273Z,9.27
2022-12-06T22:51:16.502Z,9.02
2022-12-06T22:53:43.729Z,10.93
2022-12-06T22:56:10.731Z,9.70
2022-12-06T22:58:37.124Z,19.05
2022-12-06T23:01:16.764Z,19.10
2022-12-06T23:03:44.280Z,11.80
2022-12-06T23:06:10.616Z,12.05
2022-12-06T23:08:37.045Z,9.48
2022-12-06T23:11:05.678Z,8.57
2022-12-06T23:13:32.267Z,9.35
2022-12-06T23:15:59.674Z,8.93
2022-12-06T23:18:26.725Z,8.70
2022-12-06T23:21:02.386Z,8.65
2022-12-06T23:23:28.844Z,9.05
2022-12-06T23:25:55.185Z,7.40
2022-12-06T23:28:21.500Z,8.90
2022-12-06T23:30:47.842Z,9.52
2022-12-06T23:33:17.047Z,12.18
2022-12-06T23:35:47.575Z,10.43
2022-12-06T23:38:13.852Z,9.63
2022-12-06T23:40:40.106Z,10.20
2022-12-06T23:43:06.377Z,11.23
2022-12-06T23:45:32.735Z,12.18
2022-12-06T23:47:59.038Z,13.68
2022-12-06T23:50:25.293Z,13.65
2022-12-06T23:52:51.572Z,12.63
2022-12-06T23:55:17.830Z,11.30
2022-12-06T23:57:44.117Z,10.95
